createdAt,value
2023-05-09T00:02:36.202Z,100225.53
2023-05-09T00:05:39.000Z,100212.97
2023-05-09T00:08:41.722Z,100208.16
2023-05-09T00:11:43.982Z,100201.78
2023-05-09T00:14:46.040Z,100203.66
2023-05-09T00:17:48.093Z,100199.47
2023-05-09T00:20:50.538Z,100184.66
2023-05-09T00:23:52.459Z,100195.72
2023-05-09T00:26:54.299Z,100195.16
2023-05-09T00:29:56.947Z,100207.75
2023-05-09T00:32:58.968Z,100210.06
2023-05-09T00:36:01.326Z,100205.03
2023-05-09T00:39:03.555Z,100196.03
2023-05-09T00:42:05.634Z,100197.88
2023-05-09T00:45:08.607Z,100200.47
2023-05-09T00:48:10.656Z,100204.03
2023-05-09T00:51:13.412Z,100202.63
2023-05-09T00:54:15.731Z,100203.63
2023-05-09T00:57:17.758Z,100197.91
2023-05-09T01:00:19.743Z,100200.00
2023-05-09T01:03:22.056Z,100198.84
2023-05-09T01:07:08.587Z,100191.34
2023-05-09T01:10:42.663Z,100201.22
2023-05-09T01:14:16.056Z,100209.22
2023-05-09T01:17:30.750Z,100198.44
2023-05-09T01:20:57.504Z,100217.53
2023-05-09T01:24:36.915Z,100201.91
2023-05-09T01:27:58.488Z,100209.50
2023-05-09T01:31:01.150Z,100202.59
2023-05-09T01:34:05.773Z,100203.41
2023-05-09T01:37:09.634Z,100200.66
2023-05-09T01:40:16.780Z,100200.91
2023-05-09T01:43:19.869Z,100195.56
2023-05-09T01:46:37.679Z,100186.38
2023-05-09T01:49:41.503Z,100188.94
2023-05-09T01:52:44.565Z,100193.84
2023-05-09T01:55:48.453Z,100190.94
2023-05-09T01:58:51.868Z,100193.84
2023-05-09T02:01:55.813Z,100194.28
2023-05-09T02:04:58.761Z,100196.34
2023-05-09T02:08:00.953Z,100192.69
2023-05-09T02:11:02.955Z,100184.53
2023-05-09T02:14:04.897Z,100188.63
2023-05-09T02:17:09.527Z,100186.41
2023-05-09T02:20:11.674Z,100193.31
2023-05-09T02:23:13.682Z,100177.75
2023-05-09T02:26:15.876Z,100178.72
2023-05-09T02:29:22.093Z,100183.84
2023-05-09T02:32:28.847Z,100183.44
2023-05-09T02:35:31.158Z,100181.53
2023-05-09T02:38:33.410Z,100179.50
2023-05-09T02:41:36.834Z,100188.34
2023-05-09T02:44:39.133Z,100182.94
2023-05-09T02:47:41.165Z,100173.19
2023-05-09T02:50:44.348Z,100180.19
2023-05-09T02:53:46.360Z,100176.16
2023-05-09T02:56:48.624Z,100185.84
2023-05-09T02:59:50.873Z,100180.81
2023-05-09T03:02:52.948Z,100179.25
2023-05-09T03:05:55.757Z,100181.66
2023-05-09T03:08:57.629Z,100190.78
2023-05-09T03:12:00.325Z,100184.78
2023-05-09T03:15:03.473Z,100191.91
2023-05-09T03:18:05.823Z,100185.94
2023-05-09T03:21:07.840Z,100187.41
2023-05-09T03:24:12.047Z,100196.75
2023-05-09T03:27:13.912Z,100193.78
2023-05-09T03:30:15.883Z,100196.41
2023-05-09T03:33:19.416Z,100192.69
2023-05-09T03:36:22.155Z,100193.72
2023-05-09T03:39:24.906Z,100194.63
2023-05-09T03:42:31.211Z,100201.47
2023-05-09T03:45:36.254Z,100199.69
2023-05-09T03:48:38.446Z,100204.00
2023-05-09T03:51:42.281Z,100197.47
2023-05-09T03:54:48.698Z,100204.19
2023-05-09T03:57:51.470Z,100200.94
2023-05-09T04:00:53.805Z,100206.72
2023-05-09T04:03:58.641Z,100209.69
2023-05-09T04:07:02.271Z,100205.63
2023-05-09T04:10:05.305Z,100212.41
2023-05-09T04:13:08.126Z,100207.50
2023-05-09T04:16:10.849Z,100213.50
2023-05-09T04:19:13.778Z,100220.78
2023-05-09T04:22:15.794Z,100222.16
2023-05-09T04:25:17.949Z,100220.75
2023-05-09T04:28:20.872Z,100220.44
2023-05-09T04:31:23.181Z,100213.44
2023-05-09T04:34:27.767Z,100208.50
2023-05-09T04:37:32.743Z,100211.91
2023-05-09T04:40:36.646Z,100207.44
2023-05-09T04:43:38.645Z,100205.91
2023-05-09T04:46:42.019Z,100218.25
2023-05-09T04:49:43.986Z,100214.31
2023-05-09T04:52:45.848Z,100206.25
2023-05-09T04:55:48.018Z,100220.47
2023-05-09T04:58:50.368Z,100213.97
2023-05-09T05:01:52.315Z,100216.50
2023-05-09T05:05:06.211Z,100218.66
2023-05-09T05:08:13.793Z,100217.34
2023-05-09T05:11:18.078Z,100225.63
2023-05-09T05:14:20.523Z,100224.69
2023-05-09T05:17:22.750Z,100220.06
2023-05-09T05:20:24.878Z,100222.25
2023-05-09T05:23:37.284Z,100229.41
2023-05-09T05:26:39.333Z,100224.94
2023-05-09T05:29:41.382Z,100219.06
2023-05-09T05:32:43.996Z,100225.84
2023-05-09T05:35:47.902Z,100228.69
2023-05-09T05:38:49.922Z,100224.53
2023-05-09T05:41:52.113Z,100224.63
2023-05-09T05:44:54.478Z,100227.53
2023-05-09T05:47:56.860Z,100219.72
2023-05-09T05:50:59.543Z,100231.22
2023-05-09T05:58:30.146Z,100219.69
2023-05-09T06:01:32.151Z,100222.19
2023-05-09T06:04:34.156Z,100221.09
2023-05-09T06:07:36.512Z,100226.22
2023-05-09T06:10:38.483Z,100217.16
2023-05-09T06:13:40.445Z,100226.44
2023-05-09T06:16:45.158Z,100223.66
2023-05-09T06:19:47.289Z,100225.84
2023-05-09T06:23:29.048Z,100220.41
2023-05-09T06:26:51.057Z,100219.44
2023-05-09T06:29:52.949Z,100222.06
2023-05-09T06:32:55.587Z,100221.25
2023-05-09T06:35:59.747Z,100228.63
2023-05-09T06:39:01.794Z,100219.59
2023-05-09T06:42:03.882Z,100208.22
2023-05-09T06:45:08.000Z,100212.84
2023-05-09T06:48:09.949Z,100212.38
2023-05-09T06:51:11.852Z,100218.03
2023-05-09T06:54:13.864Z,100220.19
2023-05-09T06:57:16.072Z,100224.44
2023-05-09T07:00:18.344Z,100215.72
2023-05-09T07:03:20.298Z,100217.47
2023-05-09T07:06:22.142Z,100221.91
2023-05-09T07:09:27.925Z,100212.22
2023-05-09T07:12:31.513Z,100215.84
2023-05-09T07:15:41.245Z,100209.13
2023-05-09T07:18:44.491Z,100212.63
2023-05-09T07:21:46.578Z,100218.34
2023-05-09T07:24:48.614Z,100201.63
2023-05-09T07:27:50.552Z,100212.38
2023-05-09T07:30:52.465Z,100206.97
2023-05-09T07:33:54.366Z,100200.66
2023-05-09T07:36:56.221Z,100204.66
2023-05-09T07:39:58.211Z,100204.75
2023-05-09T07:43:00.060Z,100203.63
2023-05-09T07:46:02.109Z,100198.31
2023-05-09T07:49:04.097Z,100200.34
2023-05-09T07:52:06.152Z,100176.19
2023-05-09T07:55:08.355Z,100189.56
2023-05-09T07:58:10.502Z,100191.41
2023-05-09T08:01:12.319Z,100192.50
2023-05-09T08:04:14.469Z,100184.13
2023-05-09T08:07:16.796Z,100184.03
2023-05-09T08:10:18.803Z,100178.09
2023-05-09T08:13:22.233Z,100180.25
2023-05-09T08:16:24.308Z,100180.16
2023-05-09T08:19:26.440Z,100174.72
2023-05-09T08:22:28.398Z,100165.53
2023-05-09T08:25:30.311Z,100170.03
2023-05-09T08:28:32.205Z,100165.03
2023-05-09T08:31:34.131Z,100168.69
2023-05-09T08:34:36.500Z,100168.53
2023-05-09T08:37:38.359Z,100176.84
2023-05-09T08:40:41.273Z,100155.19
2023-05-09T08:43:44.079Z,100173.44
2023-05-09T08:46:48.918Z,100181.63
2023-05-09T08:49:51.509Z,100177.56
2023-05-09T08:52:53.759Z,100182.28
2023-05-09T08:55:55.770Z,100161.25
2023-05-09T08:58:59.096Z,100167.16
2023-05-09T09:02:01.623Z,100164.53
2023-05-09T09:05:04.478Z,100154.66
2023-05-09T09:08:07.647Z,100152.81
2023-05-09T09:11:13.876Z,100156.09
2023-05-09T09:14:22.895Z,100148.75
2023-05-09T09:58:02.884Z,100140.75
2023-05-09T10:01:16.875Z,100129.38
2023-05-09T10:04:18.881Z,100135.66
2023-05-09T10:07:23.922Z,100124.47
2023-05-09T10:10:34.261Z,100136.72
2023-05-09T10:13:37.481Z,100129.16
2023-05-09T10:16:43.692Z,100123.81
2023-05-09T10:19:48.528Z,100123.34
2023-05-09T10:23:12.128Z,100118.94
2023-05-09T10:26:38.173Z,100123.69
2023-05-09T10:29:51.749Z,100114.38
2023-05-09T10:32:53.717Z,100106.34
2023-05-09T10:36:01.299Z,100110.94
2023-05-09T10:39:03.558Z,100104.13
2023-05-09T10:42:06.090Z,100100.16
2023-05-09T10:45:09.722Z,100109.31
2023-05-09T10:48:11.954Z,100101.53
2023-05-09T10:51:14.038Z,100109.31
2023-05-09T10:54:30.577Z,100096.63
2023-05-09T10:57:33.041Z,100087.84
2023-05-09T11:00:42.234Z,100091.25
2023-05-09T11:03:55.238Z,100083.97
2023-05-09T11:06:57.873Z,100075.97
2023-05-09T11:10:10.289Z,100077.75
2023-05-09T11:13:12.234Z,100090.63
2023-05-09T11:16:14.207Z,100079.88
2023-05-09T11:19:35.175Z,100065.78
2023-05-09T11:22:44.737Z,100069.72
2023-05-09T11:25:48.066Z,100057.16
2023-05-09T11:28:54.425Z,100053.13
2023-05-09T11:32:07.838Z,100052.28
2023-05-09T11:35:18.583Z,100041.69
2023-05-09T11:38:22.019Z,100054.91
2023-05-09T11:41:24.160Z,100035.81
2023-05-09T11:44:28.074Z,100043.13
2023-05-09T11:47:30.922Z,100039.19
2023-05-09T11:50:33.345Z,100041.94
2023-05-09T11:53:44.967Z,100046.22
2023-05-09T12:06:59.624Z,100037.63
2023-05-09T12:10:04.265Z,100032.59
2023-05-09T12:13:06.337Z,100030.03
2023-05-09T12:16:09.107Z,100013.72
2023-05-09T12:19:12.017Z,100013.44
2023-05-09T12:22:14.050Z,100015.72
2023-05-09T12:25:16.362Z,100009.81
2023-05-09T12:28:18.734Z,100013.66
2023-05-09T12:31:21.059Z,100010.13
2023-05-09T12:34:23.190Z,100012.38
2023-05-09T12:37:25.302Z,100012.94
2023-05-09T12:40:28.279Z,99996.72
2023-05-09T12:43:35.235Z,100002.00
2023-05-09T12:46:37.744Z,99989.69
2023-05-09T12:49:39.860Z,99983.47
2023-05-09T12:53:02.191Z,99986.59
2023-05-09T12:56:12.281Z,99974.22
2023-05-09T12:59:15.669Z,99988.06
2023-05-09T13:02:18.039Z,99980.94
2023-05-09T13:05:22.024Z,99965.28
2023-05-09T13:08:23.917Z,99972.25
2023-05-09T13:11:25.942Z,99959.72
2023-05-09T13:14:27.876Z,99956.72
2023-05-09T13:17:29.978Z,99955.78
2023-05-09T13:20:31.935Z,99958.34
2023-05-09T13:23:34.234Z,99959.84
2023-05-09T13:26:36.162Z,99944.63
2023-05-09T13:29:38.086Z,99949.28
2023-05-09T13:32:39.993Z,99944.09
2023-05-09T13:35:41.907Z,99943.69
2023-05-09T13:38:45.575Z,99940.56
2023-05-09T13:41:48.720Z,99948.25
2023-05-09T13:44:50.630Z,99942.84
2023-05-09T13:47:52.707Z,99947.38
2023-05-09T13:50:54.751Z,99943.38
2023-05-09T13:53:56.806Z,99938.94
2023-05-09T13:57:00.260Z,99940.59
2023-05-09T14:00:04.680Z,99937.06
2023-05-09T14:03:14.337Z,99927.00
2023-05-09T14:06:16.339Z,99936.38
2023-05-09T14:09:18.269Z,99927.69
2023-05-09T14:12:20.139Z,99923.94
2023-05-09T14:15:22.042Z,99912.00
2023-05-09T14:18:24.226Z,99925.09
2023-05-09T14:21:26.109Z,99919.38
2023-05-09T14:24:30.826Z,99915.97
2023-05-09T14:27:34.011Z,99918.22
2023-05-09T14:30:36.678Z,99915.88
2023-05-09T14:33:38.851Z,99921.81
2023-05-09T14:36:41.040Z,99919.41
2023-05-09T14:39:45.131Z,99914.06
2023-05-09T14:42:48.536Z,99906.78
2023-05-09T14:45:51.651Z,99908.78
2023-05-09T14:48:54.131Z,99908.78
2023-05-09T14:51:56.227Z,99905.88
2023-05-09T14:54:59.885Z,99903.41
2023-05-09T14:58:02.652Z,99905.88
2023-05-09T15:01:04.723Z,99893.84
2023-05-09T15:04:06.886Z,99894.91
2023-05-09T15:07:08.950Z,99885.47
2023-05-09T15:10:11.284Z,99891.47
2023-05-09T15:13:13.246Z,99885.00
2023-05-09T15:16:15.241Z,99886.06
2023-05-09T15:19:17.482Z,99879.25
2023-05-09T15:22:19.334Z,99881.69
2023-05-09T15:25:21.980Z,99867.00
2023-05-09T15:28:23.936Z,99867.69
2023-05-09T15:31:26.138Z,99868.06
2023-05-09T15:34:28.231Z,99861.47
2023-05-09T15:37:30.065Z,99867.25
2023-05-09T15:40:32.398Z,99859.41
2023-05-09T15:43:34.201Z,99858.19
2023-05-09T15:46:36.211Z,99857.03
2023-05-09T15:49:38.195Z,99851.28
2023-05-09T15:52:40.043Z,99855.19
2023-05-09T15:55:43.616Z,99847.69
2023-05-09T15:58:45.895Z,99845.78
2023-05-09T16:01:47.751Z,99839.28
2023-05-09T16:04:49.689Z,99842.72
2023-05-09T16:07:53.262Z,99839.31
2023-05-09T16:10:56.679Z,99834.41
2023-05-09T16:13:58.767Z,99833.88
2023-05-09T16:17:01.140Z,99831.66
2023-05-09T16:20:03.717Z,99829.16
2023-05-09T16:23:05.974Z,99834.22
2023-05-09T16:26:07.859Z,99826.25
2023-05-09T16:29:10.115Z,99821.59
2023-05-09T16:32:11.994Z,99820.25
2023-05-09T16:35:13.979Z,99823.06
2023-05-09T16:38:15.997Z,99821.44
2023-05-09T16:41:17.929Z,99820.41
2023-05-09T16:44:20.344Z,99820.84
2023-05-09T16:47:22.273Z,99822.41
2023-05-09T16:50:24.551Z,99823.88
2023-05-09T16:53:27.974Z,99831.78
2023-05-09T16:56:30.003Z,99814.88
2023-05-09T16:59:32.848Z,99820.22
2023-05-09T17:02:36.331Z,99819.84
2023-05-09T17:05:38.278Z,99814.66
2023-05-09T17:08:40.233Z,99820.19
2023-05-09T17:11:42.255Z,99826.91
2023-05-09T17:14:58.895Z,99813.66
2023-05-09T17:18:01.486Z,99813.41
2023-05-09T17:21:03.597Z,99797.91
2023-05-09T17:24:05.653Z,99809.63
2023-05-09T17:27:07.683Z,99804.31
2023-05-09T17:30:10.279Z,99813.16
2023-05-09T17:33:12.313Z,99816.00
2023-05-09T17:36:14.357Z,99811.84
2023-05-09T17:39:17.685Z,99816.16
2023-05-09T17:42:19.665Z,99812.13
2023-05-09T17:45:21.615Z,99811.13
2023-05-09T17:48:23.469Z,99816.66
2023-05-09T17:51:25.669Z,99806.97
2023-05-09T17:54:27.621Z,99806.78
2023-05-09T17:57:29.600Z,99810.25
2023-05-09T18:00:32.450Z,99811.03
2023-05-09T18:03:34.351Z,99807.13
2023-05-09T18:06:36.733Z,99815.81
2023-05-09T18:09:38.654Z,99808.75
2023-05-09T18:12:40.554Z,99814.22
2023-05-09T18:15:42.509Z,99810.19
2023-05-09T18:18:44.977Z,99810.31
2023-05-09T18:21:47.173Z,99811.03
2023-05-09T18:24:49.024Z,99815.00
2023-05-09T18:27:51.126Z,99815.50
2023-05-09T18:30:58.296Z,99821.41
2023-05-09T18:34:00.316Z,99820.69
2023-05-09T18:37:02.291Z,99824.34
2023-05-09T18:40:05.521Z,99824.34
2023-05-09T18:43:08.017Z,99818.84
2023-05-09T18:46:10.044Z,99827.69
2023-05-09T18:49:12.188Z,99828.75
2023-05-09T18:52:15.161Z,99836.34
2023-05-09T18:55:19.783Z,99828.13
2023-05-09T18:58:21.822Z,99829.50
2023-05-09T19:01:24.486Z,99836.72
2023-05-09T19:04:26.992Z,99833.94
2023-05-09T19:07:29.681Z,99825.94
2023-05-09T19:10:31.779Z,99837.56
2023-05-09T19:13:37.161Z,99831.00
2023-05-09T19:16:39.523Z,99829.53
2023-05-09T19:19:42.039Z,99829.66
2023-05-09T19:22:48.157Z,99827.47
2023-05-09T19:25:53.700Z,99822.06
2023-05-09T19:28:55.896Z,99825.59
2023-05-09T19:31:58.246Z,99823.44
2023-05-09T19:35:00.418Z,99824.38
2023-05-09T19:38:02.667Z,99828.09
2023-05-09T19:41:05.227Z,99821.47
2023-05-09T19:44:07.360Z,99823.94
2023-05-09T19:47:10.096Z,99833.78
2023-05-09T19:50:12.498Z,99835.19
2023-05-09T19:53:14.718Z,99832.91
2023-05-09T19:56:16.914Z,99831.00
2023-05-09T19:59:19.078Z,99828.72
2023-05-09T20:02:21.266Z,99824.50
2023-05-09T20:05:23.109Z,99824.63
2023-05-09T20:08:25.647Z,99815.78
2023-05-09T20:11:27.666Z,99829.94
2023-05-09T20:14:29.530Z,99825.06
2023-05-09T20:17:32.270Z,99824.22
2023-05-09T20:20:34.406Z,99822.94
2023-05-09T20:23:37.038Z,99818.22
2023-05-09T20:26:39.322Z,99826.47
2023-05-09T20:29:41.306Z,99830.88
2023-05-09T20:32:44.290Z,99828.66
2023-05-09T20:35:47.695Z,99822.84
2023-05-09T20:38:50.021Z,99818.63
2023-05-09T20:41:52.447Z,99819.06
2023-05-09T20:44:55.202Z,99818.25
2023-05-09T20:47:57.268Z,99817.16
2023-05-09T20:50:59.215Z,99825.16
2023-05-09T20:54:01.221Z,99814.75
2023-05-09T20:57:03.216Z,99821.09
2023-05-09T21:00:07.565Z,99818.00
2023-05-09T21:03:10.239Z,99826.56
2023-05-09T21:06:12.219Z,99821.00
2023-05-09T21:09:14.793Z,99818.44
2023-05-09T21:12:17.072Z,99811.00
2023-05-09T21:15:19.130Z,99810.03
2023-05-09T21:18:21.035Z,99811.41
2023-05-09T21:21:22.949Z,99813.00
2023-05-09T21:24:24.809Z,99807.47
2023-05-09T21:27:27.157Z,99801.03
2023-05-09T21:30:28.993Z,99804.44
2023-05-09T21:33:31.166Z,99800.53
2023-05-09T21:36:33.093Z,99805.69
2023-05-09T21:39:35.045Z,99797.59
2023-05-09T21:42:37.671Z,99792.31
2023-05-09T21:45:39.606Z,99800.63
2023-05-09T21:48:41.570Z,99789.22
2023-05-09T21:51:43.654Z,99796.59
2023-05-09T21:54:45.515Z,99794.47
2023-05-09T21:57:47.341Z,99798.72
2023-05-09T22:00:49.425Z,99796.13
2023-05-09T22:03:51.652Z,99794.47
2023-05-09T22:06:53.677Z,99791.22
2023-05-09T22:09:55.769Z,99784.22
2023-05-09T22:12:57.709Z,99779.16
2023-05-09T22:15:59.914Z,99779.25
2023-05-09T22:19:01.874Z,99785.44
2023-05-09T22:22:04.048Z,99786.66
2023-05-09T22:25:06.395Z,99788.66
2023-05-09T22:28:08.214Z,99788.94
2023-05-09T22:31:10.587Z,99783.03
2023-05-09T22:34:12.496Z,99777.88
2023-05-09T22:37:14.927Z,99780.72
2023-05-09T22:40:20.763Z,99784.88
2023-05-09T22:43:22.769Z,99775.81
2023-05-09T22:46:26.018Z,99780.50
2023-05-09T22:49:27.968Z,99767.84
2023-05-09T22:52:29.812Z,99768.41
2023-05-09T22:55:31.751Z,99774.38
2023-05-09T22:58:40.862Z,99774.31
2023-05-09T23:01:42.816Z,99769.47
2023-05-09T23:04:44.846Z,99764.28
2023-05-09T23:07:47.627Z,99762.75
2023-05-09T23:10:49.481Z,99762.47
2023-05-09T23:13:51.371Z,99761.38
2023-05-09T23:16:53.316Z,99752.06
2023-05-09T23:19:55.247Z,99748.00
2023-05-09T23:22:57.096Z,99752.97
2023-05-09T23:25:59.176Z,99748.91
2023-05-09T23:29:01.065Z,99745.59
2023-05-09T23:32:03.064Z,99742.16
2023-05-09T23:35:05.872Z,99743.69
2023-05-09T23:38:07.759Z,99747.63
2023-05-09T23:41:09.714Z,99741.88
2023-05-09T23:44:12.605Z,99743.06
2023-05-09T23:47:14.504Z,99742.97
2023-05-09T23:50:16.869Z,99738.81
2023-05-09T23:53:19.386Z,99735.38
2023-05-09T23:56:21.480Z,99732.06
2023-05-09T23:59:23.460Z,99732.25
